John H. — WAC6768 — position and weather

sailwx.info

Track history (hours):
 
Tides and Currents Weather Stations Pressure Air Temp Water Temp Dewpoint Dewpoint Depression Visibility Wind Speed Wind Dir Waves Ship Positions

John H.

Owner: CROSS SOUND FERRY SERVICE INC, NEW LOUDON, CT. More information available from US FCC via Universal Licensing System and Coast Guard Vessel Documentation Center.

Last reported at 2018-Jun-23 02:13 UTC. Time now 2018-Jun-23 09:53 UTC.
Position N 41°09' W 072°14'.

Length 70 m; draft 3.2 m.

Type: Passenger vessel. MMSI: 366934890.

Date/timePositionNaut miles runAvg speedWind from/ knotsBaromVisibWave heightAir tempDewpointWater temp
2018-Jun-23 02:13N 41°09' W 072°14'311.6
2018-Jun-23 02:00N 41°12' W 072°13'711.8
2018-Jun-23 01:26N 41°16' W 072°07'1 0.3
2018-Jun-22 23:54N 41°17' W 072°06'612.8
2018-Jun-22 23:28N 41°13' W 072°12'3 2.5
2018-Jun-22 22:16N 41°10' W 072°13'412.4
2018-Jun-22 21:59N 41°13' W 072°11'1 0.7
2018-Jun-22 19:50N 41°14' W 072°10'5 3.1
2018-Jun-22 18:19N 41°10' W 072°13'412.0
2018-Jun-22 18:00N 41°13' W 072°11'1 0.5
2018-Jun-22 15:47N 41°14' W 072°10'414.8
2018-Jun-22 15:30N 41°11' W 072°13'1 0.8
2018-Jun-22 14:08N 41°12' W 072°12'211.5
2018-Jun-22 13:59N 41°13' W 072°11'1 0.6
2018-Jun-22 11:39N 41°14' W 072°10'213.3
2018-Jun-22 11:29N 41°12' W 072°12'4 6.4
2018-Jun-22 10:55N 41°09' W 072°14'1 0.1
2018-Jun-22 00:19N 41°10' W 072°14'3 9.2
2018-Jun-22 00:00N 41°13' W 072°12'4 2.0
2018-Jun-21 21:48N 41°15' W 072°08'412.1
2018-Jun-21 21:29N 41°13' W 072°11'4 2.9
2018-Jun-21 20:10N 41°09' W 072°14'210.9
2018-Jun-21 19:57N 41°12' W 072°13'713.9
2018-Jun-21 19:28N 41°17' W 072°07'1 0.7
2018-Jun-21 18:02N 41°17' W 072°06'312.5
2018-Jun-21 17:46N 41°15' W 072°09'313.2
2018-Jun-21 17:30N 41°12' W 072°12'1 0.7
2018-Jun-21 16:06N 41°11' W 072°13'111.7
2018-Jun-21 16:00N 41°12' W 072°12'3 1.1
2018-Jun-21 13:36N 41°14' W 072°09'214.9
2018-Jun-21 13:30N 41°13' W 072°11'4 3.4
2018-Jun-21 12:18N 41°09' W 072°13'311.0
2018-Jun-21 12:00N 41°12' W 072°12'5 0.4
2018-Jun-20 23:45N 41°15' W 072°07'414.6
2018-Jun-20 23:29N 41°13' W 072°11'3 2.1
2018-Jun-20 22:09N 41°11' W 072°14'212.0
2018-Jun-20 22:00N 41°12' W 072°12'7 3.4
2018-Jun-20 20:00N 41°17' W 072°06'611.9
2018-Jun-20 19:30N 41°12' W 072°11'3 2.2
2018-Jun-20 18:13N 41°10' W 072°14'312.8
2018-Jun-20 18:00N 41°13' W 072°12'8 4.1
2018-Jun-20 16:07N 41°18' W 072°05'212.3
2018-Jun-20 16:00N 41°17' W 072°06'713.3
2018-Jun-20 15:30N 41°12' W 072°12'2 1.9
2018-Jun-20 14:21N 41°10' W 072°13'410.3
2018-Jun-20 13:59N 41°13' W 072°10'6 3.2
2018-Jun-20 12:03N 41°18' W 072°05'113.0
2018-Jun-20 11:59N 41°17' W 072°06'714.3
2018-Jun-20 11:30N 41°12' W 072°12'2 0.2
2018-Jun-20 00:09N 41°11' W 072°14'211.0
2018-Jun-20 00:00N 41°12' W 072°12'2 0.8
2018-Jun-19 21:43N 41°13' W 072°10'4 2.5
2018-Jun-19 20:08N 41°10' W 072°14'212.8
2018-Jun-19 20:00N 41°12' W 072°13'3 1.5
2018-Jun-19 17:43N 41°14' W 072°09'4 2.8
2018-Jun-19 16:05N 41°10' W 072°14'112.8
2018-Jun-19 16:00N 41°11' W 072°13'4 1.9
2018-Jun-19 13:46N 41°14' W 072°08'415.0
2018-Jun-19 13:30N 41°11' W 072°13'0 0.3
2018-Jun-19 12:08N 41°12' W 072°13'310.6
2018-Jun-19 11:53N 41°13' W 072°10'4 0.4
2018-Jun-19 00:02N 41°16' W 072°06'214.0
2018-Jun-18 23:54N 41°15' W 072°07'5 3.3
2018-Jun-18 22:15N 41°12' W 072°13'310.4
2018-Jun-18 22:00N 41°13' W 072°11'3 1.6
2018-Jun-18 20:07N 41°15' W 072°08'213.3
2018-Jun-18 19:59N 41°14' W 072°09'4 2.2
2018-Jun-18 18:07N 41°11' W 072°14'214.0
2018-Jun-18 18:00N 41°12' W 072°12'2 1.0
2018-Jun-18 15:40N 41°14' W 072°10'212.8
2018-Jun-18 15:30N 41°12' W 072°12'2 1.8
2018-Jun-18 14:13N 41°10' W 072°13'310.9
2018-Jun-18 13:57N 41°13' W 072°12'6 2.8
2018-Jun-18 11:52N 41°17' W 072°06'515.2
2018-Jun-18 11:30N 41°13' W 072°11'4 8.6
2018-Jun-18 11:00N 41°09' W 072°14'0 0.0
2018-Jun-18 10:27N 41°09' W 072°14'0 0.0
2018-Jun-18 10:00N 41°09' W 072°14'0 0.0
2018-Jun-18 02:24N 41°09' W 072°14'2 3.6
2018-Jun-18 01:56N 41°11' W 072°14'512.7
2018-Jun-18 01:30N 41°15' W 072°09'3 2.0
2018-Jun-18 00:00N 41°17' W 072°06'714.5
2018-Jun-17 23:30N 41°12' W 072°12'2 2.2
2018-Jun-17 22:25N 41°09' W 072°13'4 9.8
2018-Jun-17 22:00N 41°13' W 072°11'7 3.4
2018-Jun-17 20:06N 41°18' W 072°05'113.8
2018-Jun-17 20:00N 41°17' W 072°06'714.2
2018-Jun-17 19:30N 41°12' W 072°12'3 2.6
2018-Jun-17 18:25N 41°09' W 072°14'512.6
2018-Jun-17 18:00N 41°14' W 072°11'713.2
2018-Jun-17 17:30N 41°19' W 072°05'0 0.1
2018-Jun-17 16:09N 41°19' W 072°05'213.1
2018-Jun-17 16:00N 41°17' W 072°05'611.9
2018-Jun-17 15:30N 41°13' W 072°11'2 1.3
2018-Jun-17 14:01N 41°11' W 072°13'9 4.2
2018-Jun-17 11:55N 41°18' W 072°05'613.9
2018-Jun-17 11:30N 41°13' W 072°09'5 0.4
2018-Jun-17 00:13N 41°09' W 072°13'210.4
2018-Jun-17 00:00N 41°12' W 072°13'611.9
2018-Jun-16 23:29N 41°16' W 072°07'3 1.8
2018-Jun-16 22:01N 41°18' W 072°05'012.4
2018-Jun-16 22:00N 41°18' W 072°05'714.3
2018-Jun-16 21:30N 41°12' W 072°11'4 3.7
2018-Jun-16 20:25N 41°09' W 072°14'510.6
2018-Jun-16 20:00N 41°13' W 072°11'7 3.6
2018-Jun-16 18:03N 41°18' W 072°05'113.6
2018-Jun-16 17:59N 41°17' W 072°05'612.9
2018-Jun-16 17:30N 41°13' W 072°11'4 3.3
2018-Jun-16 16:14N 41°09' W 072°14'210.7
2018-Jun-16 16:00N 41°11' W 072°13'714.6
2018-Jun-16 15:30N 41°17' W 072°07'2 1.2
2018-Jun-16 14:03N 41°18' W 072°05'112.8
2018-Jun-16 13:58N 41°17' W 072°05'612.5
2018-Jun-16 13:28N 41°12' W 072°11'4 3.5
2018-Jun-16 12:19N 41°09' W 072°14'310.6
2018-Jun-16 12:00N 41°12' W 072°12'612.0
2018-Jun-16 11:29N 41°17' W 072°07'2 0.2
2018-Jun-16 02:14N 41°18' W 072°05'311.9
2018-Jun-16 01:56N 41°15' W 072°08'511.6
2018-Jun-16 01:30N 41°12' W 072°13'2 2.1
2018-Jun-16 00:21N 41°09' W 072°14'410.6
2018-Jun-16 00:00N 41°13' W 072°12'7 3.9
2018-Jun-15 22:06N 41°18' W 072°05'212.7
2018-Jun-15 21:59N 41°17' W 072°06'714.8
2018-Jun-15 21:30N 41°12' W 072°12'2 1.7
2018-Jun-15 20:20N 41°10' W 072°13'310.4
2018-Jun-15 20:01N 41°13' W 072°11'2 0.8
2018-Jun-15 17:44N 41°14' W 072°09'414.4
2018-Jun-15 17:30N 41°11' W 072°13'1 0.6
2018-Jun-15 16:10N 41°11' W 072°14'314.0
2018-Jun-15 15:59N 41°13' W 072°12'4 1.9
2018-Jun-15 13:54N 41°15' W 072°07'411.0
2018-Jun-15 13:30N 41°12' W 072°11'4 2.8
2018-Jun-15 12:16N 41°09' W 072°13'311.0
2018-Jun-15 12:00N 41°12' W 072°12'6 0.5
2018-Jun-14 23:54N 41°16' W 072°07'512.1
2018-Jun-14 23:30N 41°13' W 072°11'4 3.2
2018-Jun-14 22:14N 41°09' W 072°14'210.7
2018-Jun-14 22:01N 41°11' W 072°13'9 4.4
2018-Jun-14 19:55N 41°18' W 072°05'613.8
2018-Jun-14 19:30N 41°14' W 072°09'5 4.4
2018-Jun-14 18:19N 41°09' W 072°13'310.5
2018-Jun-14 18:00N 41°13' W 072°12'8 3.9
2018-Jun-14 16:03N 41°18' W 072°05'113.9
2018-Jun-14 15:58N 41°17' W 072°06'612.8
2018-Jun-14 15:30N 41°13' W 072°11'4 2.9
2018-Jun-14 14:15N 41°09' W 072°13'311.5
2018-Jun-14 14:00N 41°12' W 072°13'3 1.4
2018-Jun-14 11:37N 41°14' W 072°09'212.9
2018-Jun-14 11:28N 41°12' W 072°11'3 0.2
2018-Jun-14 00:09N 41°10' W 072°14'211.9
2018-Jun-14 00:00N 41°12' W 072°13'3 1.5
2018-Jun-13 21:38N 41°14' W 072°09'214.7
2018-Jun-13 21:29N 41°12' W 072°12'3 2.1
2018-Jun-13 20:14N 41°10' W 072°13'310.4
2018-Jun-13 19:59N 41°13' W 072°12'2 0.9
2018-Jun-13 17:35N 41°14' W 072°10'215.7
2018-Jun-13 17:28N 41°13' W 072°11'3 2.2
2018-Jun-13 16:10N 41°10' W 072°13'210.8
2018-Jun-13 16:00N 41°12' W 072°12'4 1.9
2018-Jun-13 13:46N 41°15' W 072°09'411.5
2018-Jun-13 13:27N 41°12' W 072°12'3 2.7
2018-Jun-13 12:16N 41°09' W 072°13'3 9.7
2018-Jun-13 12:00N 41°12' W 072°13'  
Track history (hours):
 
Tides and Currents Weather Stations Pressure Air Temp Water Temp Dewpoint Dewpoint Depression Visibility Wind Speed Wind Dir Waves Ship Positions

John H.

Owner: CROSS SOUND FERRY SERVICE INC, NEW LOUDON, CT. More information available from US FCC via Universal Licensing System and Coast Guard Vessel Documentation Center.

Last reported at 2018-Jun-23 02:13 UTC. Time now 2018-Jun-23 09:53 UTC.
Position N 41°09' W 072°14'.

Length 70 m; draft 3.2 m.

Type: Passenger vessel. MMSI: 366934890.

Date/timePositionNaut miles runAvg speedWind from/ knotsBaromVisibWave heightAir tempDewpointWater temp
2018-Jun-23 02:13N 41°09' W 072°14'311.6
2018-Jun-23 02:00N 41°12' W 072°13'711.8
2018-Jun-23 01:26N 41°16' W 072°07'1 0.3
2018-Jun-22 23:54N 41°17' W 072°06'612.8
2018-Jun-22 23:28N 41°13' W 072°12'3 2.5
2018-Jun-22 22:16N 41°10' W 072°13'412.4
2018-Jun-22 21:59N 41°13' W 072°11'1 0.7
2018-Jun-22 19:50N 41°14' W 072°10'5 3.1
2018-Jun-22 18:19N 41°10' W 072°13'412.0
2018-Jun-22 18:00N 41°13' W 072°11'1 0.5
2018-Jun-22 15:47N 41°14' W 072°10'414.8
2018-Jun-22 15:30N 41°11' W 072°13'1 0.8
2018-Jun-22 14:08N 41°12' W 072°12'211.5
2018-Jun-22 13:59N 41°13' W 072°11'1 0.6
2018-Jun-22 11:39N 41°14' W 072°10'213.3
2018-Jun-22 11:29N 41°12' W 072°12'4 6.4
2018-Jun-22 10:55N 41°09' W 072°14'1 0.1
2018-Jun-22 00:19N 41°10' W 072°14'3 9.2
2018-Jun-22 00:00N 41°13' W 072°12'4 2.0
2018-Jun-21 21:48N 41°15' W 072°08'412.1
2018-Jun-21 21:29N 41°13' W 072°11'4 2.9
2018-Jun-21 20:10N 41°09' W 072°14'210.9
2018-Jun-21 19:57N 41°12' W 072°13'713.9
2018-Jun-21 19:28N 41°17' W 072°07'1 0.7
2018-Jun-21 18:02N 41°17' W 072°06'312.5
2018-Jun-21 17:46N 41°15' W 072°09'313.2
2018-Jun-21 17:30N 41°12' W 072°12'1 0.7
2018-Jun-21 16:06N 41°11' W 072°13'111.7
2018-Jun-21 16:00N 41°12' W 072°12'3 1.1
2018-Jun-21 13:36N 41°14' W 072°09'214.9
2018-Jun-21 13:30N 41°13' W 072°11'4 3.4
2018-Jun-21 12:18N 41°09' W 072°13'311.0
2018-Jun-21 12:00N 41°12' W 072°12'5 0.4
2018-Jun-20 23:45N 41°15' W 072°07'414.6
2018-Jun-20 23:29N 41°13' W 072°11'3 2.1
2018-Jun-20 22:09N 41°11' W 072°14'212.0
2018-Jun-20 22:00N 41°12' W 072°12'7 3.4
2018-Jun-20 20:00N 41°17' W 072°06'611.9
2018-Jun-20 19:30N 41°12' W 072°11'3 2.2
2018-Jun-20 18:13N 41°10' W 072°14'312.8
2018-Jun-20 18:00N 41°13' W 072°12'8 4.1
2018-Jun-20 16:07N 41°18' W 072°05'212.3
2018-Jun-20 16:00N 41°17' W 072°06'713.3
2018-Jun-20 15:30N 41°12' W 072°12'2 1.9
2018-Jun-20 14:21N 41°10' W 072°13'410.3
2018-Jun-20 13:59N 41°13' W 072°10'6 3.2
2018-Jun-20 12:03N 41°18' W 072°05'113.0
2018-Jun-20 11:59N 41°17' W 072°06'714.3
2018-Jun-20 11:30N 41°12' W 072°12'2 0.2
2018-Jun-20 00:09N 41°11' W 072°14'211.0
2018-Jun-20 00:00N 41°12' W 072°12'2 0.8
2018-Jun-19 21:43N 41°13' W 072°10'4 2.5
2018-Jun-19 20:08N 41°10' W 072°14'212.8
2018-Jun-19 20:00N 41°12' W 072°13'3 1.5
2018-Jun-19 17:43N 41°14' W 072°09'4 2.8
2018-Jun-19 16:05N 41°10' W 072°14'112.8
2018-Jun-19 16:00N 41°11' W 072°13'4 1.9
2018-Jun-19 13:46N 41°14' W 072°08'415.0
2018-Jun-19 13:30N 41°11' W 072°13'0 0.3
2018-Jun-19 12:08N 41°12' W 072°13'310.6
2018-Jun-19 11:53N 41°13' W 072°10'4 0.4
2018-Jun-19 00:02N 41°16' W 072°06'214.0
2018-Jun-18 23:54N 41°15' W 072°07'5 3.3
2018-Jun-18 22:15N 41°12' W 072°13'310.4
2018-Jun-18 22:00N 41°13' W 072°11'3 1.6
2018-Jun-18 20:07N 41°15' W 072°08'213.3
2018-Jun-18 19:59N 41°14' W 072°09'4 2.2
2018-Jun-18 18:07N 41°11' W 072°14'214.0
2018-Jun-18 18:00N 41°12' W 072°12'2 1.0
2018-Jun-18 15:40N 41°14' W 072°10'212.8
2018-Jun-18 15:30N 41°12' W 072°12'2 1.8
2018-Jun-18 14:13N 41°10' W 072°13'310.9
2018-Jun-18 13:57N 41°13' W 072°12'6 2.8
2018-Jun-18 11:52N 41°17' W 072°06'515.2
2018-Jun-18 11:30N 41°13' W 072°11'4 8.6
2018-Jun-18 11:00N 41°09' W 072°14'0 0.0
2018-Jun-18 10:27N 41°09' W 072°14'0 0.0
2018-Jun-18 10:00N 41°09' W 072°14'0 0.0
2018-Jun-18 02:24N 41°09' W 072°14'2 3.6
2018-Jun-18 01:56N 41°11' W 072°14'512.7
2018-Jun-18 01:30N 41°15' W 072°09'3 2.0
2018-Jun-18 00:00N 41°17' W 072°06'714.5
2018-Jun-17 23:30N 41°12' W 072°12'2 2.2
2018-Jun-17 22:25N 41°09' W 072°13'4 9.8
2018-Jun-17 22:00N 41°13' W 072°11'7 3.4
2018-Jun-17 20:06N 41°18' W 072°05'113.8
2018-Jun-17 20:00N 41°17' W 072°06'714.2
2018-Jun-17 19:30N 41°12' W 072°12'3 2.6
2018-Jun-17 18:25N 41°09' W 072°14'512.6
2018-Jun-17 18:00N 41°14' W 072°11'713.2
2018-Jun-17 17:30N 41°19' W 072°05'0 0.1
2018-Jun-17 16:09N 41°19' W 072°05'213.1
2018-Jun-17 16:00N 41°17' W 072°05'611.9
2018-Jun-17 15:30N 41°13' W 072°11'2 1.3
2018-Jun-17 14:01N 41°11' W 072°13'9 4.2
2018-Jun-17 11:55N 41°18' W 072°05'613.9
2018-Jun-17 11:30N 41°13' W 072°09'5 0.4
2018-Jun-17 00:13N 41°09' W 072°13'210.4
2018-Jun-17 00:00N 41°12' W 072°13'611.9
2018-Jun-16 23:29N 41°16' W 072°07'3 1.8
2018-Jun-16 22:01N 41°18' W 072°05'012.4
2018-Jun-16 22:00N 41°18' W 072°05'714.3
2018-Jun-16 21:30N 41°12' W 072°11'4 3.7
2018-Jun-16 20:25N 41°09' W 072°14'510.6
2018-Jun-16 20:00N 41°13' W 072°11'7 3.6
2018-Jun-16 18:03N 41°18' W 072°05'113.6
2018-Jun-16 17:59N 41°17' W 072°05'612.9
2018-Jun-16 17:30N 41°13' W 072°11'4 3.3
2018-Jun-16 16:14N 41°09' W 072°14'210.7
2018-Jun-16 16:00N 41°11' W 072°13'714.6
2018-Jun-16 15:30N 41°17' W 072°07'2 1.2
2018-Jun-16 14:03N 41°18' W 072°05'112.8
2018-Jun-16 13:58N 41°17' W 072°05'612.5
2018-Jun-16 13:28N 41°12' W 072°11'4 3.5
2018-Jun-16 12:19N 41°09' W 072°14'310.6
2018-Jun-16 12:00N 41°12' W 072°12'612.0
2018-Jun-16 11:29N 41°17' W 072°07'2 0.2
2018-Jun-16 02:14N 41°18' W 072°05'311.9
2018-Jun-16 01:56N 41°15' W 072°08'511.6
2018-Jun-16 01:30N 41°12' W 072°13'2 2.1
2018-Jun-16 00:21N 41°09' W 072°14'410.6
2018-Jun-16 00:00N 41°13' W 072°12'7 3.9
2018-Jun-15 22:06N 41°18' W 072°05'212.7
2018-Jun-15 21:59N 41°17' W 072°06'714.8
2018-Jun-15 21:30N 41°12' W 072°12'2 1.7
2018-Jun-15 20:20N 41°10' W 072°13'310.4
2018-Jun-15 20:01N 41°13' W 072°11'2 0.8
2018-Jun-15 17:44N 41°14' W 072°09'414.4
2018-Jun-15 17:30N 41°11' W 072°13'1 0.6
2018-Jun-15 16:10N 41°11' W 072°14'314.0
2018-Jun-15 15:59N 41°13' W 072°12'4 1.9
2018-Jun-15 13:54N 41°15' W 072°07'411.0
2018-Jun-15 13:30N 41°12' W 072°11'4 2.8
2018-Jun-15 12:16N 41°09' W 072°13'311.0
2018-Jun-15 12:00N 41°12' W 072°12'6 0.5
2018-Jun-14 23:54N 41°16' W 072°07'512.1
2018-Jun-14 23:30N 41°13' W 072°11'4 3.2
2018-Jun-14 22:14N 41°09' W 072°14'210.7
2018-Jun-14 22:01N 41°11' W 072°13'9 4.4
2018-Jun-14 19:55N 41°18' W 072°05'613.8
2018-Jun-14 19:30N 41°14' W 072°09'5 4.4
2018-Jun-14 18:19N 41°09' W 072°13'310.5
2018-Jun-14 18:00N 41°13' W 072°12'8 3.9
2018-Jun-14 16:03N 41°18' W 072°05'113.9
2018-Jun-14 15:58N 41°17' W 072°06'612.8
2018-Jun-14 15:30N 41°13' W 072°11'4 2.9
2018-Jun-14 14:15N 41°09' W 072°13'311.5
2018-Jun-14 14:00N 41°12' W 072°13'3 1.4
2018-Jun-14 11:37N 41°14' W 072°09'212.9
2018-Jun-14 11:28N 41°12' W 072°11'3 0.2
2018-Jun-14 00:09N 41°10' W 072°14'211.9
2018-Jun-14 00:00N 41°12' W 072°13'3 1.5
2018-Jun-13 21:38N 41°14' W 072°09'214.7
2018-Jun-13 21:29N 41°12' W 072°12'3 2.1
2018-Jun-13 20:14N 41°10' W 072°13'310.4
2018-Jun-13 19:59N 41°13' W 072°12'2 0.9
2018-Jun-13 17:35N 41°14' W 072°10'215.7
2018-Jun-13 17:28N 41°13' W 072°11'3 2.2
2018-Jun-13 16:10N 41°10' W 072°13'210.8
2018-Jun-13 16:00N 41°12' W 072°12'4 1.9
2018-Jun-13 13:46N 41°15' W 072°09'411.5
2018-Jun-13 13:27N 41°12' W 072°12'3 2.7
2018-Jun-13 12:16N 41°09' W 072°13'3 9.7
2018-Jun-13 12:00N 41°12' W 072°13'  

Dump ship's entire track history